Wednesday, December 19, 2018, 10:46 AM EST
Back to Local

KUNV, State College, University Park Airport

Location: State College, PA, United States Lat: 40.85
Local Time: 10:46 AM EST (15:46 GMT) Lon: -77.85
Time Zone: US/Eastern Elev: 1240 ft

Show me the last for .
Show Coded

Time T Td Feel RH Dir Speed Gust Alt SLP Vis Weather Sky Remarks
2018-12-19 09:53 32 23 - 68 - Calm - 30.11 - 10 FEW080 None
2018-12-19 08:53 27 21 - 79 - Calm - 30.11 - 10 CLR None
2018-12-19 07:53 23 19 17 85 200° 5 - 30.10 - 10 CLR None
2018-12-19 06:53 21 18 - 85 - Calm - 30.09 - 10 CLR None
2018-12-19 05:53 21 19 - 92 - Calm - 30.09 - 10 CLR None
2018-12-19 05:37 25 20 - 80 - Calm - 30.10 - 10 CLR None
2018-12-19 05:17 24 20 - 82 - Calm - 30.10 - 10 CLR None
2018-12-19 04:57 25 20 - 80 - Calm - 30.10 - 10 CLR None
2018-12-19 04:37 25 20 - 80 - Calm - 30.11 - 10 SCT110 None
2018-12-19 04:16 28 20 - 73 - Calm - 30.12 - 10 CLR None
2018-12-19 03:57 25 20 - 79 - Calm - 30.13 - 10 CLR None
2018-12-19 03:37 24 19 - 81 - Calm - 30.13 - 10 CLR None
2018-12-19 03:16 27 20 20 74 250° 6 - 30.13 - 10 CLR None
2018-12-19 02:57 26 19 - 74 - Calm - 30.13 - 10 CLR None
2018-12-19 02:37 25 18 - 74 - Calm - 30.13 - 10 CLR None
2018-12-19 02:16 25 19 - 75 - Calm - 30.12 - 10 CLR None
2018-12-19 01:56 24 18 - 78 - Calm - 30.13 - 10 CLR None
2018-12-19 01:37 24 19 - 78 - Calm - 30.12 - 10 CLR None
2018-12-19 01:17 24 19 - 78 - Calm - 30.13 - 10 CLR None
2018-12-19 00:57 26 19 21 73 210° 5 - 30.13 - 10 CLR None
2018-12-19 00:36 24 18 18 78 210° 5 - 30.13 - 10 CLR None
2018-12-19 00:16 28 18 - 66 - Calm - 30.13 - 10 SCT110 None
2018-12-18 23:57 27 18 - 68 - Calm - 30.13 - 10 SCT110 None
2018-12-18 23:36 28 18 22 65 250° 6 - 30.13 - 10 SCT110 None
2018-12-18 23:16 28 18 20 65 250° 7 - 30.13 - 10 CLR None
2018-12-18 22:57 28 18 - 65 - Calm - 30.13 - 10 CLR None
2018-12-18 22:37 26 17 - 68 - Calm - 30.13 - 10 CLR None
2018-12-18 22:16 31 17 27 55 290° 3 - 30.13 - 10 CLR None
2018-12-18 21:53 28 16 - 58 - Calm - 30.13 - 10 CLR None
2018-12-18 20:53 28 16 - 58 - Calm - 30.14 - 10 CLR None
2018-12-18 19:53 32 16 - 50 - Calm - 30.13 - 10 CLR None
2018-12-18 18:53 34 16 30 47 300° 5 - 30.15 - 10 CLR None
2018-12-18 17:53 34 16 - 47 - Calm - 30.14 - 10 CLR None
2018-12-18 16:53 36 16 32 43 300° 5 - 30.14 - 10 CLR None
2018-12-18 15:53 37 14 31 37 330° 8 - 30.12 - 10 CLR None
2018-12-18 14:53 39 18 32 41 310° 10 - 30.11 - 10 CLR None
2018-12-18 13:53 37 16 30 40 300° 12 - 30.10 - 10 CLR None
2018-12-18 12:53 37 16 27 40 310° 9 21 30.10 - 10 CLR None
2018-12-18 11:53 36 16 27 43 310° 14 - 30.12 - 10 FEW045 None
2018-12-18 10:53 34 18 24 50 320° 16 - 30.12 - 10 FEW045 None

Support USWX by starting your Amazon purchase here.